createdAt,value
2019-03-17T00:01:12.102Z,91.10
2019-03-17T00:03:51.816Z,91.10
2019-03-17T00:05:57.134Z,91.20
2019-03-17T00:08:05.650Z,91.10
2019-03-17T00:10:10.636Z,91.10
2019-03-17T00:12:15.953Z,91.10
2019-03-17T00:14:43.710Z,91.00
2019-03-17T00:16:51.745Z,91.10
2019-03-17T00:18:57.072Z,91.10
2019-03-17T00:21:02.388Z,91.10
2019-03-17T00:23:07.704Z,91.10
2019-03-17T00:25:13.020Z,91.20
2019-03-17T00:27:18.348Z,91.20
2019-03-17T00:29:31.566Z,91.20
2019-03-17T00:31:37.055Z,91.10
2019-03-17T00:36:10.742Z,91.20
2019-03-17T00:38:29.515Z,91.30
2019-03-17T00:40:34.831Z,91.30
2019-03-17T00:42:40.159Z,91.40
2019-03-17T00:44:45.583Z,91.30
2019-03-17T00:46:50.863Z,91.30
2019-03-17T00:48:56.193Z,91.40
2019-03-17T00:51:04.502Z,91.40
2019-03-17T00:53:09.822Z,91.30
2019-03-17T00:55:15.164Z,91.40
2019-03-17T00:57:23.365Z,91.30
2019-03-17T00:59:30.289Z,91.40
2019-03-17T01:01:38.325Z,91.40
2019-03-17T01:03:43.716Z,91.40
2019-03-17T01:05:49.032Z,91.40
2019-03-17T01:07:54.364Z,91.50
2019-03-17T01:09:59.707Z,91.40
2019-03-17T01:12:05.033Z,91.50
2019-03-17T01:14:10.353Z,91.50
2019-03-17T01:16:15.708Z,91.50
2019-03-17T01:18:21.021Z,91.50
2019-03-17T01:20:26.836Z,91.40
2019-03-17T01:22:32.184Z,91.40
2019-03-17T01:24:37.504Z,91.40
2019-03-17T01:26:42.829Z,91.40
2019-03-17T01:28:48.195Z,91.40
2019-03-17T01:30:53.489Z,91.40
2019-03-17T01:32:58.804Z,91.40
2019-03-17T01:35:09.701Z,91.40
2019-03-17T01:37:12.920Z,91.50
2019-03-17T01:39:18.243Z,91.40
2019-03-17T01:41:23.592Z,91.40
2019-03-17T01:43:28.908Z,91.20
2019-03-17T01:45:34.220Z,91.10
2019-03-17T01:47:39.547Z,91.30
2019-03-17T01:49:44.864Z,91.20
2019-03-17T01:51:50.187Z,91.20
2019-03-17T01:53:55.508Z,91.20
2019-03-17T01:56:00.821Z,91.20
2019-03-17T01:58:06.135Z,91.20
2019-03-17T02:00:13.233Z,91.20
2019-03-17T02:02:18.543Z,91.20
2019-03-17T02:04:23.868Z,91.30
2019-03-17T02:06:30.271Z,91.20
2019-03-17T02:08:36.560Z,91.40
2019-03-17T02:10:41.872Z,91.60
2019-03-17T02:12:47.200Z,91.50
2019-03-17T02:14:52.520Z,91.60
2019-03-17T02:16:57.840Z,91.50
2019-03-17T02:19:04.248Z,91.50
2019-03-17T02:21:09.556Z,91.50
2019-03-17T02:23:15.849Z,91.30
2019-03-17T02:25:21.192Z,91.30
2019-03-17T02:27:26.511Z,91.30
2019-03-17T02:29:31.828Z,91.30
2019-03-17T02:31:37.158Z,91.20
2019-03-17T02:33:42.486Z,91.30
2019-03-17T02:35:47.792Z,91.10
2019-03-17T02:37:53.124Z,91.30
2019-03-17T02:39:58.441Z,91.20
2019-03-17T02:42:03.761Z,91.20
2019-03-17T02:44:09.083Z,91.30
2019-03-17T02:46:14.400Z,91.20
2019-03-17T02:48:19.724Z,91.20
2019-03-17T02:50:25.041Z,91.20
2019-03-17T02:52:30.359Z,91.00
2019-03-17T02:54:35.669Z,91.00
2019-03-17T02:56:41.009Z,90.90
2019-03-17T02:58:46.316Z,90.90
2019-03-17T03:00:51.639Z,90.80
2019-03-17T03:02:57.032Z,90.80
2019-03-17T03:05:02.348Z,90.70
2019-03-17T03:07:07.741Z,90.80
2019-03-17T03:09:13.063Z,90.80
2019-03-17T03:11:18.376Z,90.90
2019-03-17T03:13:23.714Z,90.90
2019-03-17T03:15:29.037Z,91.00
2019-03-17T03:17:35.308Z,91.00
2019-03-17T03:19:40.620Z,91.00
2019-03-17T03:21:45.955Z,91.10
2019-03-17T03:23:51.296Z,91.20
2019-03-17T03:25:56.613Z,91.30
2019-03-17T03:28:01.974Z,91.30
2019-03-17T03:30:10.050Z,91.30
2019-03-17T03:32:15.314Z,91.50
2019-03-17T03:34:20.620Z,91.50
2019-03-17T03:36:25.982Z,91.40
2019-03-17T03:38:31.310Z,91.40
2019-03-17T03:40:36.630Z,91.40
2019-03-17T03:42:42.107Z,91.50
2019-03-17T03:44:47.347Z,91.40
2019-03-17T03:46:52.662Z,91.50
2019-03-17T03:48:57.991Z,91.50
2019-03-17T03:51:03.309Z,91.60
2019-03-17T03:53:09.684Z,91.60
2019-03-17T03:55:15.041Z,91.60
2019-03-17T03:57:20.356Z,91.80
2019-03-17T03:59:25.701Z,91.80
2019-03-17T04:01:31.009Z,91.70
2019-03-17T04:03:36.321Z,91.80
2019-03-17T04:05:41.640Z,91.70
2019-03-17T04:07:46.961Z,91.70
2019-03-17T04:09:52.289Z,91.80
2019-03-17T04:11:57.603Z,91.70
2019-03-17T04:14:02.935Z,91.80
2019-03-17T04:16:08.256Z,91.80
2019-03-17T04:18:13.582Z,91.90
2019-03-17T04:20:18.923Z,91.80
2019-03-17T04:22:24.236Z,91.90
2019-03-17T04:24:30.530Z,91.90
2019-03-17T04:26:35.852Z,91.90
2019-03-17T04:28:41.168Z,92.10
2019-03-17T04:30:46.596Z,92.10
2019-03-17T04:32:51.912Z,92.30
2019-03-17T04:34:57.228Z,92.30
2019-03-17T04:37:02.570Z,92.20
2019-03-17T04:39:07.887Z,92.20
2019-03-17T04:41:13.225Z,92.20
2019-03-17T04:43:18.536Z,92.10
2019-03-17T04:45:23.852Z,92.20
2019-03-17T04:47:30.144Z,92.20
2019-03-17T04:49:35.461Z,92.10
2019-03-17T04:51:40.782Z,92.20
2019-03-17T04:53:46.119Z,92.20
2019-03-17T04:55:51.437Z,92.20
2019-03-17T04:57:56.751Z,92.10
2019-03-17T05:00:02.245Z,92.10
2019-03-17T05:02:07.762Z,92.10
2019-03-17T05:04:13.072Z,92.20
2019-03-17T05:06:18.421Z,92.30
2019-03-17T05:08:23.728Z,92.50
2019-03-17T05:10:29.048Z,92.30
2019-03-17T05:12:34.371Z,92.30
2019-03-17T05:14:39.685Z,92.20
2019-03-17T05:16:44.999Z,92.20
2019-03-17T05:18:50.328Z,92.20
2019-03-17T05:20:55.653Z,92.10
2019-03-17T05:23:00.966Z,92.30
2019-03-17T05:25:06.942Z,92.20
2019-03-17T05:27:12.249Z,92.20
2019-03-17T05:29:17.568Z,92.10
2019-03-17T05:31:22.904Z,92.00
2019-03-17T05:33:28.211Z,91.90
2019-03-17T05:35:33.532Z,91.90
2019-03-17T05:37:39.204Z,91.90
2019-03-17T05:39:44.524Z,91.80
2019-03-17T05:41:49.852Z,91.80
2019-03-17T05:43:55.204Z,91.70
2019-03-17T05:46:00.524Z,91.60
2019-03-17T05:48:05.840Z,91.60
2019-03-17T05:50:11.192Z,91.50
2019-03-17T05:52:16.508Z,91.40
2019-03-17T05:54:21.829Z,91.30
2019-03-17T05:56:27.156Z,91.20
2019-03-17T05:58:32.464Z,91.20
2019-03-17T06:00:37.801Z,91.00
2019-03-17T06:02:43.136Z,91.00
2019-03-17T06:04:48.448Z,90.80
2019-03-17T06:06:53.767Z,90.70
2019-03-17T06:08:59.091Z,90.60
2019-03-17T06:11:04.675Z,90.50
2019-03-17T06:13:09.993Z,90.30
2019-03-17T06:15:15.320Z,90.10
2019-03-17T06:17:20.639Z,89.80
2019-03-17T06:19:25.951Z,89.50
2019-03-17T06:21:31.287Z,89.20
2019-03-17T06:23:36.593Z,88.10
2019-03-17T06:25:41.911Z,87.50
2019-03-17T06:27:47.363Z,86.10
2019-03-17T06:29:52.684Z,84.90
2019-03-17T06:31:57.999Z,83.80
2019-03-17T06:34:03.331Z,82.50
2019-03-17T06:36:08.663Z,81.60
2019-03-17T06:38:13.980Z,79.60
2019-03-17T06:40:19.312Z,77.70
2019-03-17T06:42:24.725Z,76.20
2019-03-17T06:44:30.047Z,73.80
2019-03-17T06:46:35.471Z,72.70
2019-03-17T06:48:40.804Z,72.40
2019-03-17T06:50:47.098Z,70.90
2019-03-17T06:52:53.657Z,69.60
2019-03-17T06:54:59.084Z,69.20
2019-03-17T06:57:04.412Z,68.70
2019-03-17T06:59:09.786Z,69.30
2019-03-17T07:01:15.060Z,68.30
2019-03-17T07:03:20.384Z,69.00
2019-03-17T07:05:25.727Z,70.20
2019-03-17T07:07:42.931Z,71.70
2019-03-17T07:09:37.996Z,71.60
2019-03-17T07:11:43.328Z,70.70
2019-03-17T07:13:48.656Z,69.70
2019-03-17T07:15:53.979Z,70.10
2019-03-17T07:17:59.344Z,69.90
2019-03-17T07:20:10.307Z,69.30
2019-03-17T07:22:15.632Z,70.80
2019-03-17T07:24:20.968Z,70.00
2019-03-17T07:26:26.295Z,70.00
2019-03-17T07:28:31.619Z,69.10
2019-03-17T07:30:36.974Z,68.90
2019-03-17T07:32:42.297Z,68.10
2019-03-17T07:34:47.620Z,68.10
2019-03-17T07:36:52.943Z,66.20
2019-03-17T07:39:10.870Z,66.70
2019-03-17T07:41:05.246Z,66.20
2019-03-17T07:43:10.559Z,67.50
2019-03-17T07:45:15.891Z,68.80
2019-03-17T07:47:21.208Z,68.20
2019-03-17T07:49:26.528Z,67.80
2019-03-17T07:51:31.869Z,65.40
2019-03-17T07:53:37.192Z,65.60
2019-03-17T07:55:42.516Z,64.80
2019-03-17T07:57:47.849Z,63.60
2019-03-17T07:59:53.168Z,63.80
2019-03-17T08:01:58.487Z,63.30
2019-03-17T08:04:03.811Z,64.10
2019-03-17T08:06:09.138Z,62.70
2019-03-17T08:08:14.451Z,61.20
2019-03-17T08:10:19.791Z,61.30
2019-03-17T08:12:25.114Z,59.20
2019-03-17T08:14:30.428Z,59.10
2019-03-17T08:16:35.839Z,57.60
2019-03-17T08:18:41.144Z,58.10
2019-03-17T08:20:46.467Z,58.10
2019-03-17T08:22:51.783Z,57.10
2019-03-17T08:24:57.112Z,56.30
2019-03-17T08:27:02.429Z,56.30
2019-03-17T08:29:07.826Z,56.40
2019-03-17T08:31:13.143Z,56.00
2019-03-17T08:33:18.469Z,56.30
2019-03-17T08:35:23.806Z,56.80
2019-03-17T08:37:29.118Z,56.00
2019-03-17T08:39:34.439Z,56.50
2019-03-17T08:41:39.761Z,56.10
2019-03-17T08:43:54.276Z,55.70
2019-03-17T08:45:52.048Z,54.80
2019-03-17T08:47:58.769Z,53.60
2019-03-17T08:50:06.300Z,53.80
2019-03-17T08:52:11.604Z,53.20
2019-03-17T08:54:16.993Z,53.70
2019-03-17T08:56:22.312Z,53.90
2019-03-17T08:58:27.637Z,54.20
2019-03-17T09:00:32.966Z,54.10
2019-03-17T09:02:38.281Z,54.60
2019-03-17T09:04:44.579Z,53.40
2019-03-17T09:06:50.882Z,52.20
2019-03-17T09:08:56.230Z,51.30
2019-03-17T09:11:01.520Z,49.90
2019-03-17T09:13:06.848Z,50.40
2019-03-17T09:15:12.161Z,49.70
2019-03-17T09:17:17.642Z,50.60
2019-03-17T09:19:22.986Z,48.50
2019-03-17T09:21:28.310Z,49.90
2019-03-17T09:23:33.629Z,49.40
2019-03-17T09:25:38.947Z,49.50
2019-03-17T09:27:44.275Z,49.40
2019-03-17T09:29:49.593Z,48.40
2019-03-17T09:31:54.899Z,47.00
2019-03-17T09:34:00.246Z,47.20
2019-03-17T09:36:05.559Z,47.10
2019-03-17T09:38:10.980Z,46.70
2019-03-17T09:40:17.360Z,44.30
2019-03-17T09:42:22.687Z,44.30
2019-03-17T09:44:28.007Z,42.70
2019-03-17T09:46:37.601Z,42.20
2019-03-17T09:48:42.915Z,40.90
2019-03-17T09:50:48.291Z,40.10
2019-03-17T09:52:53.592Z,42.50
2019-03-17T09:54:58.908Z,41.60
2019-03-17T09:57:04.240Z,40.70
2019-03-17T09:59:09.552Z,40.60
2019-03-17T10:01:14.864Z,38.80
2019-03-17T10:03:20.288Z,39.50
2019-03-17T10:05:25.611Z,38.50
2019-03-17T10:07:30.922Z,38.40
2019-03-17T10:09:36.231Z,39.40
2019-03-17T10:11:41.545Z,39.00
2019-03-17T10:13:46.856Z,37.60
2019-03-17T10:15:52.164Z,38.40
2019-03-17T10:17:57.468Z,36.90
2019-03-17T10:20:02.780Z,37.00
2019-03-17T10:22:08.104Z,37.10
2019-03-17T10:24:13.411Z,38.30
2019-03-17T10:26:18.727Z,37.60
2019-03-17T10:28:24.052Z,38.30
2019-03-17T10:30:29.360Z,38.90
2019-03-17T10:32:34.671Z,39.10
2019-03-17T10:34:40.005Z,40.50
2019-03-17T10:36:45.308Z,39.50
2019-03-17T10:38:50.619Z,38.30
2019-03-17T10:40:55.960Z,36.60
2019-03-17T10:43:01.267Z,37.50
2019-03-17T10:45:08.743Z,35.30
2019-03-17T10:47:14.058Z,35.90
2019-03-17T10:49:19.367Z,35.50
2019-03-17T10:51:24.716Z,35.20
2019-03-17T10:53:30.021Z,32.50
2019-03-17T10:55:35.335Z,32.60
2019-03-17T10:57:40.745Z,33.70
2019-03-17T10:59:46.053Z,34.00
2019-03-17T11:01:51.364Z,35.00
2019-03-17T11:03:56.687Z,33.00
2019-03-17T11:06:01.996Z,30.70
2019-03-17T11:08:07.311Z,30.20
2019-03-17T11:10:14.820Z,30.20
2019-03-17T11:12:20.137Z,32.60
2019-03-17T11:14:25.452Z,30.90
2019-03-17T11:16:30.768Z,31.50
2019-03-17T11:18:36.077Z,31.60
2019-03-17T11:20:41.385Z,32.10
2019-03-17T11:22:47.604Z,34.30
2019-03-17T11:24:53.457Z,32.70
2019-03-17T11:26:58.762Z,32.80
2019-03-17T11:29:04.100Z,32.80
2019-03-17T11:31:09.408Z,33.20
2019-03-17T11:33:14.723Z,32.10
2019-03-17T11:35:20.039Z,32.00
2019-03-17T11:37:25.352Z,32.00
2019-03-17T11:39:37.867Z,32.70
2019-03-17T11:41:37.605Z,33.20
2019-03-17T11:43:42.923Z,32.10
2019-03-17T11:45:48.229Z,31.80
2019-03-17T11:47:53.553Z,30.70
2019-03-17T11:49:58.869Z,32.30
2019-03-17T11:52:04.175Z,31.70
2019-03-17T11:54:09.508Z,31.60
2019-03-17T11:56:14.816Z,31.20
2019-03-17T11:58:20.137Z,30.90
2019-03-17T12:00:25.461Z,30.40
2019-03-17T12:02:30.774Z,30.00
2019-03-17T12:04:36.089Z,29.40
2019-03-17T12:06:41.400Z,30.00
2019-03-17T12:08:46.825Z,30.90
2019-03-17T12:10:52.184Z,30.80
2019-03-17T12:12:57.547Z,29.00
2019-03-17T12:15:02.989Z,27.80
2019-03-17T12:17:08.356Z,27.50
2019-03-17T12:19:13.709Z,27.00
2019-03-17T12:21:19.049Z,27.90
2019-03-17T12:23:24.416Z,27.50
2019-03-17T12:25:29.728Z,27.00
2019-03-17T12:27:35.036Z,27.90
2019-03-17T12:29:40.348Z,27.70
2019-03-17T12:31:45.664Z,26.90
2019-03-17T12:33:50.971Z,27.20
2019-03-17T12:35:56.284Z,25.40
2019-03-17T12:38:01.854Z,26.80
2019-03-17T12:40:07.522Z,26.30
2019-03-17T12:42:15.583Z,26.00
2019-03-17T12:44:20.946Z,25.30
2019-03-17T12:46:26.319Z,25.90
2019-03-17T12:48:31.640Z,25.80
2019-03-17T12:50:37.037Z,26.80
2019-03-17T12:52:44.179Z,26.20
2019-03-17T12:54:49.533Z,26.00
2019-03-17T12:56:54.919Z,25.60
2019-03-17T12:59:00.317Z,28.00
2019-03-17T13:01:05.683Z,23.40
2019-03-17T13:03:11.072Z,24.30
2019-03-17T13:05:16.428Z,25.20
2019-03-17T13:07:21.788Z,25.00
2019-03-17T13:09:27.182Z,24.40
2019-03-17T13:11:32.529Z,24.90
2019-03-17T13:13:38.080Z,23.90
2019-03-17T13:15:43.537Z,24.70
2019-03-17T13:17:48.900Z,23.90
2019-03-17T13:19:54.249Z,23.30
2019-03-17T13:21:59.625Z,23.70
2019-03-17T13:24:04.985Z,23.70
2019-03-17T13:26:10.524Z,24.80
2019-03-17T13:28:15.851Z,25.30
2019-03-17T13:30:21.192Z,24.90
2019-03-17T13:32:26.584Z,25.60
2019-03-17T13:34:31.949Z,25.40
2019-03-17T13:36:37.316Z,25.50
2019-03-17T13:38:42.702Z,26.10
2019-03-17T13:40:53.878Z,27.00
2019-03-17T13:42:59.420Z,26.70
2019-03-17T13:45:06.772Z,26.70
2019-03-17T13:47:13.121Z,27.60
2019-03-17T13:49:18.521Z,27.80
2019-03-17T13:51:23.844Z,28.50
2019-03-17T13:53:29.186Z,29.00
2019-03-17T13:55:34.528Z,30.80
2019-03-17T13:57:41.500Z,29.90
2019-03-17T13:59:46.827Z,29.80
2019-03-17T14:01:52.180Z,30.70
2019-03-17T14:03:57.489Z,29.70
2019-03-17T14:06:02.809Z,29.90
2019-03-17T14:08:08.138Z,30.30
2019-03-17T14:10:15.948Z,29.70
2019-03-17T14:12:21.261Z,29.70
2019-03-17T14:14:26.607Z,30.00
2019-03-17T14:16:31.919Z,29.60
2019-03-17T14:18:37.235Z,29.70
2019-03-17T14:20:42.581Z,29.30
2019-03-17T14:22:47.891Z,29.40
2019-03-17T14:24:53.217Z,29.30
2019-03-17T14:26:58.551Z,29.40
2019-03-17T14:29:03.856Z,29.60
2019-03-17T14:31:09.173Z,29.10
2019-03-17T14:33:14.512Z,29.90
2019-03-17T14:35:21.452Z,29.60
2019-03-17T14:37:26.747Z,29.40
2019-03-17T14:39:32.078Z,29.80
2019-03-17T14:41:37.393Z,29.80
2019-03-17T14:43:42.710Z,28.90
2019-03-17T14:45:48.036Z,28.60
2019-03-17T14:47:53.344Z,28.90
2019-03-17T14:49:58.664Z,29.00
2019-03-17T14:52:04.075Z,29.10
2019-03-17T14:54:09.381Z,29.00
2019-03-17T14:56:15.656Z,29.20
2019-03-17T14:58:20.990Z,28.90
2019-03-17T15:00:26.330Z,28.80
2019-03-17T15:02:31.640Z,29.10
2019-03-17T15:04:36.975Z,28.90
2019-03-17T15:06:42.291Z,28.60
2019-03-17T15:08:48.580Z,28.40
2019-03-17T15:11:05.262Z,28.40
2019-03-17T15:13:00.856Z,27.70
2019-03-17T15:15:12.150Z,27.50
2019-03-17T15:17:17.480Z,27.30
2019-03-17T15:19:22.787Z,27.00
2019-03-17T15:21:28.150Z,26.60
2019-03-17T15:23:33.538Z,27.00
2019-03-17T15:25:38.861Z,27.40
2019-03-17T15:27:44.177Z,27.80
2019-03-17T15:29:49.489Z,27.80
2019-03-17T15:31:54.795Z,27.60
2019-03-17T15:34:00.112Z,28.00
2019-03-17T15:36:05.435Z,28.00
2019-03-17T15:38:10.743Z,28.10
2019-03-17T15:40:21.092Z,28.10
2019-03-17T15:42:26.518Z,28.00
2019-03-17T15:44:31.831Z,28.10
2019-03-17T15:46:37.142Z,28.10
2019-03-17T15:48:42.461Z,28.00
2019-03-17T15:50:47.776Z,27.10
2019-03-17T15:52:53.099Z,27.20
2019-03-17T15:54:58.421Z,26.60
2019-03-17T15:57:03.745Z,26.70
2019-03-17T15:59:09.519Z,26.40
2019-03-17T16:01:16.519Z,26.90
2019-03-17T16:03:21.947Z,27.00
2019-03-17T16:05:27.311Z,26.50
2019-03-17T16:07:42.088Z,26.50
2019-03-17T16:12:17.130Z,26.60
2019-03-17T16:14:24.922Z,26.70
2019-03-17T16:16:30.262Z,26.80
2019-03-17T16:18:35.877Z,26.70
2019-03-17T16:20:42.369Z,26.40
2019-03-17T16:22:50.760Z,26.30
2019-03-17T16:25:03.761Z,26.20
2019-03-17T16:29:50.760Z,26.40
2019-03-17T16:31:57.740Z,26.80
2019-03-17T16:34:03.526Z,26.70
2019-03-17T16:38:29.597Z,26.80
2019-03-17T16:40:36.519Z,27.00
2019-03-17T16:42:41.989Z,27.10
2019-03-17T16:44:47.537Z,27.00
2019-03-17T16:46:52.868Z,26.90
2019-03-17T16:48:58.227Z,26.90
2019-03-17T16:51:03.751Z,27.10
2019-03-17T17:08:21.774Z,27.90
2019-03-17T17:10:29.420Z,27.80
2019-03-17T17:12:36.492Z,28.10
2019-03-17T17:14:41.965Z,28.40
2019-03-17T17:16:55.761Z,29.00
2019-03-17T17:21:40.619Z,29.10
2019-03-17T17:23:58.321Z,29.10
2019-03-17T18:27:28.690Z,31.30
2019-03-17T18:29:34.056Z,31.60
2019-03-17T18:31:39.433Z,31.80
2019-03-17T18:33:44.795Z,32.40
2019-03-17T18:35:50.172Z,32.80
2019-03-17T18:37:55.559Z,33.00
2019-03-17T18:40:01.000Z,32.90
2019-03-17T18:42:06.333Z,33.80
2019-03-17T18:44:11.736Z,33.60
2019-03-17T18:46:17.097Z,34.10
2019-03-17T18:48:22.425Z,35.10
2019-03-17T18:50:27.753Z,35.60
2019-03-17T18:52:33.111Z,36.50
2019-03-17T18:54:38.433Z,37.10
2019-03-17T18:56:43.757Z,37.40
2019-03-17T18:58:49.105Z,37.30
2019-03-17T19:00:54.434Z,37.70
2019-03-17T19:02:59.759Z,38.00
2019-03-17T19:05:07.341Z,38.10
2019-03-17T19:07:12.656Z,37.80
2019-03-17T19:09:19.053Z,37.70
2019-03-17T19:11:24.384Z,38.20
2019-03-17T19:13:30.828Z,38.30
2019-03-17T19:15:36.184Z,38.50
2019-03-17T19:17:41.561Z,38.50
2019-03-17T19:19:48.964Z,38.80
2019-03-17T19:21:54.289Z,39.40
2019-03-17T19:23:59.623Z,40.80
2019-03-17T19:26:04.949Z,40.60
2019-03-17T19:28:11.336Z,41.00
2019-03-17T19:30:18.779Z,40.80
2019-03-17T19:32:24.168Z,41.00
2019-03-17T19:34:29.486Z,41.00
2019-03-17T19:36:34.823Z,41.20
2019-03-17T19:38:40.139Z,41.30
2019-03-17T19:42:24.304Z,41.50
2019-03-17T19:44:29.652Z,41.90
2019-03-17T19:46:35.009Z,41.70
2019-03-17T19:48:40.371Z,42.10
2019-03-17T19:50:46.071Z,43.30
2019-03-17T19:52:51.372Z,43.90
2019-03-17T19:54:56.744Z,44.90
2019-03-17T19:57:02.102Z,44.80
2019-03-17T19:59:07.439Z,44.40
2019-03-17T20:01:12.824Z,43.90
2019-03-17T20:03:18.169Z,43.70
2019-03-17T20:05:23.520Z,43.80
2019-03-17T20:07:28.897Z,43.90
2019-03-17T20:09:34.237Z,44.10
2019-03-17T20:11:39.588Z,43.60
2019-03-17T20:13:44.951Z,43.80
2019-03-17T20:15:50.288Z,43.90
2019-03-17T20:17:55.633Z,44.20
2019-03-17T20:20:01.038Z,45.00
2019-03-17T20:22:06.432Z,45.20
2019-03-17T20:24:11.795Z,45.40
2019-03-17T20:26:18.751Z,46.00
2019-03-17T20:28:54.451Z,46.20
2019-03-17T20:32:45.995Z,46.30
2019-03-17T20:34:51.332Z,45.40
2019-03-17T20:38:07.009Z,45.20
2019-03-17T20:40:16.472Z,45.10
2019-03-17T20:42:22.800Z,45.00
2019-03-17T20:44:28.169Z,45.20
2019-03-17T20:46:33.542Z,45.00
2019-03-17T20:48:38.926Z,45.10
2019-03-17T20:50:44.312Z,44.90
2019-03-17T20:52:49.664Z,45.50
2019-03-17T20:54:55.051Z,45.50
2019-03-17T20:57:00.845Z,45.90
2019-03-17T20:59:06.390Z,46.00
2019-03-17T21:01:11.744Z,47.00
2019-03-17T21:03:17.132Z,48.00
2019-03-17T21:05:22.477Z,48.90
2019-03-17T21:07:27.838Z,48.90
2019-03-17T21:09:33.205Z,49.70
2019-03-17T21:11:38.544Z,50.40
2019-03-17T21:13:46.862Z,50.60
2019-03-17T21:15:51.105Z,50.90
2019-03-17T21:17:57.864Z,51.90
2019-03-17T21:20:05.922Z,52.60
2019-03-17T21:22:12.006Z,53.10
2019-03-17T21:24:19.740Z,54.50
2019-03-17T21:26:25.096Z,55.50
2019-03-17T21:28:30.740Z,57.10
2019-03-17T21:30:36.498Z,57.60
2019-03-17T21:32:41.911Z,59.10
2019-03-17T21:34:47.328Z,64.70
2019-03-17T21:36:52.665Z,68.80
2019-03-17T21:38:58.028Z,69.40
2019-03-17T21:41:07.298Z,69.90
2019-03-17T21:43:10.373Z,70.90
2019-03-17T21:45:15.708Z,71.40
2019-03-17T21:47:21.140Z,72.00
2019-03-17T21:49:26.482Z,73.60
2019-03-17T21:51:31.826Z,73.90
2019-03-17T21:53:37.298Z,73.70
2019-03-17T21:55:42.645Z,75.20
2019-03-17T21:57:47.990Z,75.60
2019-03-17T21:59:53.344Z,75.50
2019-03-17T22:01:58.675Z,75.60
2019-03-17T22:04:04.002Z,76.00
2019-03-17T22:06:09.356Z,76.30
2019-03-17T22:08:14.672Z,76.40
2019-03-17T22:10:21.234Z,76.60
2019-03-17T22:12:26.605Z,76.80
2019-03-17T22:14:33.002Z,76.90
2019-03-17T22:16:38.332Z,77.10
2019-03-17T22:18:43.684Z,77.20
2019-03-17T22:20:49.041Z,77.20
2019-03-17T22:22:54.448Z,77.00
2019-03-17T22:24:59.792Z,76.60
2019-03-17T22:27:05.137Z,76.90
2019-03-17T22:29:10.476Z,76.80
2019-03-17T22:31:15.840Z,76.40
2019-03-17T22:33:21.144Z,76.20
2019-03-17T22:35:26.481Z,75.50
2019-03-17T22:37:31.816Z,74.50
2019-03-17T22:39:37.148Z,74.60
2019-03-17T22:41:42.467Z,75.20
2019-03-17T22:43:47.812Z,74.90
2019-03-17T22:45:53.148Z,74.50
2019-03-17T22:47:58.500Z,74.20
2019-03-17T22:50:04.994Z,74.60
2019-03-17T22:52:10.333Z,74.90
2019-03-17T22:54:15.678Z,74.90
2019-03-17T22:56:22.088Z,74.10
2019-03-17T22:58:27.424Z,74.70
2019-03-17T23:00:34.466Z,74.20
2019-03-17T23:02:41.364Z,74.80
2019-03-17T23:04:46.712Z,75.20
2019-03-17T23:06:52.099Z,75.00
2019-03-17T23:08:57.435Z,75.80
2019-03-17T23:11:02.780Z,76.50
2019-03-17T23:13:08.166Z,76.40
2019-03-17T23:15:13.491Z,76.40
2019-03-17T23:17:18.821Z,75.90
2019-03-17T23:19:24.204Z,75.30
2019-03-17T23:21:29.571Z,75.10
2019-03-17T23:23:34.901Z,74.80
2019-03-17T23:25:40.313Z,74.50
2019-03-17T23:27:45.651Z,75.00
2019-03-17T23:29:50.999Z,74.80
2019-03-17T23:31:56.413Z,74.90
2019-03-17T23:34:01.725Z,75.90
2019-03-17T23:36:07.049Z,78.00
2019-03-17T23:38:12.426Z,80.60
2019-03-17T23:40:18.135Z,82.00
2019-03-17T23:42:23.505Z,83.50
2019-03-17T23:44:28.860Z,85.20
2019-03-17T23:46:34.206Z,85.80
2019-03-17T23:48:39.541Z,85.90
2019-03-17T23:50:44.890Z,86.30
2019-03-17T23:52:50.229Z,84.70
2019-03-17T23:54:55.552Z,86.70
2019-03-17T23:57:00.914Z,88.20
2019-03-17T23:59:06.241Z,87.40
